createdAt,value
2023-02-17T00:02:11.427Z,98120.53
2023-02-17T00:04:38.187Z,98128.19
2023-02-17T00:07:04.865Z,98127.22
2023-02-17T00:09:31.547Z,98127.53
2023-02-17T00:11:58.173Z,98132.22
2023-02-17T00:14:24.831Z,98134.19
2023-02-17T00:16:51.506Z,98133.53
2023-02-17T00:19:18.134Z,98128.84
2023-02-17T00:21:44.802Z,98131.50
2023-02-17T00:24:11.471Z,98132.47
2023-02-17T00:26:38.179Z,98135.16
2023-02-17T00:29:04.802Z,98135.81
2023-02-17T00:31:31.522Z,98131.31
2023-02-17T00:33:58.233Z,98139.31
2023-02-17T00:36:25.301Z,98141.00
2023-02-17T00:38:52.890Z,98139.00
2023-02-17T00:41:19.560Z,98139.00
2023-02-17T00:43:46.397Z,98142.84
2023-02-17T00:46:13.213Z,98151.59
2023-02-17T00:48:40.009Z,98154.25
2023-02-17T00:51:06.724Z,98158.44
2023-02-17T00:53:33.333Z,98149.38
2023-02-17T00:55:59.951Z,98151.88
2023-02-17T00:58:26.545Z,98146.50
2023-02-17T01:00:54.769Z,98144.00
2023-02-17T01:03:21.411Z,98140.78
2023-02-17T01:05:48.429Z,98139.44
2023-02-17T01:08:15.467Z,98142.75
2023-02-17T01:10:43.216Z,98138.91
2023-02-17T01:13:09.904Z,98139.56
2023-02-17T01:15:40.878Z,98142.91
2023-02-17T01:18:07.481Z,98144.41
2023-02-17T01:20:37.877Z,98150.41
2023-02-17T01:23:05.191Z,98145.72
2023-02-17T01:25:31.868Z,98140.16
2023-02-17T01:27:58.704Z,98143.69
2023-02-17T01:30:25.657Z,98139.22
2023-02-17T01:32:52.355Z,98143.38
2023-02-17T01:35:19.021Z,98135.34
2023-02-17T01:37:45.662Z,98130.19
2023-02-17T01:40:14.174Z,98133.16
2023-02-17T01:42:40.799Z,98132.66
2023-02-17T01:45:19.417Z,98133.50
2023-02-17T01:48:05.904Z,98126.13
2023-02-17T01:50:35.850Z,98125.13
2023-02-17T01:53:02.880Z,98126.97
2023-02-17T01:55:29.621Z,98132.13
2023-02-17T01:57:56.696Z,98127.97
2023-02-17T02:00:23.489Z,98123.34
2023-02-17T02:02:50.250Z,98117.03
2023-02-17T02:05:17.076Z,98116.00
2023-02-17T02:07:43.719Z,98124.13
2023-02-17T02:10:11.100Z,98127.13
2023-02-17T02:12:39.111Z,98129.44
2023-02-17T02:15:17.190Z,98128.41
2023-02-17T02:17:49.696Z,98122.31
2023-02-17T02:20:42.793Z,98119.59
2023-02-17T02:23:34.626Z,98128.09
2023-02-17T02:26:19.560Z,98128.47
2023-02-17T02:29:19.797Z,98124.63
2023-02-17T02:32:04.810Z,98122.59
2023-02-17T02:34:38.580Z,98118.41
2023-02-17T02:37:17.271Z,98114.56
2023-02-17T02:39:46.635Z,98121.13
2023-02-17T02:42:17.510Z,98127.09
2023-02-17T02:44:44.149Z,98127.41
2023-02-17T02:47:45.000Z,98123.06
2023-02-17T02:50:14.663Z,98119.91
2023-02-17T02:53:18.952Z,98112.19
2023-02-17T02:55:57.288Z,98113.50
2023-02-17T02:58:33.095Z,98111.00
2023-02-17T03:01:04.391Z,98118.50
2023-02-17T03:03:56.482Z,98112.97
2023-02-17T03:06:45.960Z,98119.63
2023-02-17T03:09:24.831Z,98127.31
2023-02-17T03:11:51.472Z,98123.00
2023-02-17T03:14:19.837Z,98123.34
2023-02-17T03:16:46.661Z,98116.59
2023-02-17T03:19:13.634Z,98120.00
2023-02-17T03:21:44.962Z,98107.59
2023-02-17T03:24:11.614Z,98109.22
2023-02-17T03:26:38.240Z,98108.22
2023-02-17T03:29:04.987Z,98115.22
2023-02-17T03:31:31.779Z,98115.91
2023-02-17T03:33:58.924Z,98109.22
2023-02-17T03:36:25.594Z,98104.84
2023-02-17T03:38:52.201Z,98104.19
2023-02-17T03:41:18.857Z,98106.03
2023-02-17T03:43:45.505Z,98114.59
2023-02-17T03:46:13.072Z,98109.06
2023-02-17T03:48:39.823Z,98110.81
2023-02-17T03:51:17.257Z,98112.94
2023-02-17T03:53:44.251Z,98114.88
2023-02-17T03:56:11.384Z,98121.94
2023-02-17T03:58:38.325Z,98120.44
2023-02-17T04:01:05.888Z,98118.41
2023-02-17T04:03:33.687Z,98120.56
2023-02-17T04:06:00.335Z,98116.03
2023-02-17T04:08:26.981Z,98118.53
2023-02-17T04:10:58.530Z,98121.69
2023-02-17T04:13:25.237Z,98116.34
2023-02-17T04:15:52.118Z,98121.31
2023-02-17T04:18:19.179Z,98123.31
2023-02-17T04:20:46.251Z,98119.31
2023-02-17T04:23:12.872Z,98121.81
2023-02-17T04:25:39.524Z,98136.88
2023-02-17T04:28:06.274Z,98138.84
2023-02-17T04:30:33.101Z,98134.47
2023-02-17T04:32:59.830Z,98122.47
2023-02-17T04:35:26.475Z,98130.16
2023-02-17T04:37:53.107Z,98128.13
2023-02-17T04:40:19.818Z,98130.31
2023-02-17T04:42:46.422Z,98129.53
2023-02-17T04:45:13.158Z,98129.84
2023-02-17T04:47:39.926Z,98126.22
2023-02-17T04:50:06.994Z,98129.22
2023-02-17T04:52:33.660Z,98133.06
2023-02-17T04:55:00.303Z,98128.66
2023-02-17T04:57:26.994Z,98131.34
2023-02-17T04:59:53.588Z,98135.78
2023-02-17T05:02:20.230Z,98136.56
2023-02-17T05:04:46.979Z,98134.47
2023-02-17T05:07:13.622Z,98136.88
2023-02-17T05:09:40.442Z,98135.84
2023-02-17T05:12:07.103Z,98136.38
2023-02-17T05:14:33.819Z,98126.97
2023-02-17T05:17:00.435Z,98134.47
2023-02-17T05:19:27.097Z,98130.81
2023-02-17T05:21:53.735Z,98143.19
2023-02-17T05:24:20.391Z,98132.53
2023-02-17T05:26:47.172Z,98135.66
2023-02-17T05:29:13.836Z,98139.94
2023-02-17T05:31:40.612Z,98125.69
2023-02-17T05:34:07.322Z,98136.72
2023-02-17T05:36:33.977Z,98136.44
2023-02-17T05:39:00.618Z,98134.59
2023-02-17T05:41:27.225Z,98129.72
2023-02-17T05:43:53.833Z,98132.56
2023-02-17T05:46:20.434Z,98129.59
2023-02-17T05:48:47.073Z,98131.59
2023-02-17T05:51:13.747Z,98127.63
2023-02-17T05:53:40.419Z,98117.09
2023-02-17T05:56:07.463Z,98130.00
2023-02-17T05:58:34.262Z,98128.69
2023-02-17T06:01:00.928Z,98129.47
2023-02-17T06:03:27.602Z,98136.53
2023-02-17T06:05:54.267Z,98138.00
2023-02-17T06:08:20.878Z,98131.47
2023-02-17T06:10:47.525Z,98125.91
2023-02-17T06:13:14.177Z,98127.09
2023-02-17T06:15:41.003Z,98125.06
2023-02-17T06:18:07.651Z,98123.72
2023-02-17T06:20:34.560Z,98128.94
2023-02-17T06:23:01.211Z,98131.81
2023-02-17T06:25:27.814Z,98134.63
2023-02-17T06:27:54.460Z,98135.66
2023-02-17T06:30:21.268Z,98138.84
2023-02-17T06:32:47.894Z,98141.88
2023-02-17T06:35:14.499Z,98145.91
2023-02-17T06:37:41.093Z,98146.78
2023-02-17T06:40:08.028Z,98148.63
2023-02-17T06:42:34.708Z,98151.00
2023-02-17T06:45:01.345Z,98151.69
2023-02-17T06:47:27.988Z,98157.03
2023-02-17T06:49:54.633Z,98162.56
2023-02-17T06:52:21.275Z,98163.72
2023-02-17T06:54:47.922Z,98165.44
2023-02-17T06:57:14.536Z,98161.22
2023-02-17T06:59:41.151Z,98169.94
2023-02-17T07:02:10.118Z,98169.94
2023-02-17T07:04:36.776Z,98175.75
2023-02-17T07:07:03.461Z,98182.41
2023-02-17T07:09:30.260Z,98185.09
2023-02-17T07:11:56.897Z,98185.09
2023-02-17T07:14:25.065Z,98186.25
2023-02-17T07:16:51.916Z,98184.44
2023-02-17T07:19:18.540Z,98191.75
2023-02-17T07:21:45.288Z,98187.75
2023-02-17T07:24:11.968Z,98187.56
2023-02-17T07:26:39.221Z,98193.09
2023-02-17T07:29:06.018Z,98204.94
2023-02-17T07:31:32.837Z,98208.25
2023-02-17T07:34:01.575Z,98217.56
2023-02-17T07:36:28.284Z,98214.34
2023-02-17T07:38:54.973Z,98227.19
2023-02-17T07:41:23.183Z,98228.81
2023-02-17T07:43:49.849Z,98224.38
2023-02-17T07:46:16.560Z,98228.84
2023-02-17T07:48:43.239Z,98220.34
2023-02-17T07:51:11.516Z,98210.25
2023-02-17T07:53:38.254Z,98210.84
2023-02-17T07:56:06.086Z,98214.41
2023-02-17T07:58:33.768Z,98219.53
2023-02-17T08:01:07.222Z,98208.75
2023-02-17T08:03:33.884Z,98212.56
2023-02-17T08:06:00.613Z,98216.84
2023-02-17T08:08:27.381Z,98218.97
2023-02-17T08:10:54.102Z,98219.72
2023-02-17T08:13:20.702Z,98215.47
2023-02-17T08:15:47.362Z,98219.09
2023-02-17T08:18:13.999Z,98222.16
2023-02-17T08:20:40.901Z,98213.72
2023-02-17T08:23:07.516Z,98223.91
2023-02-17T08:25:34.795Z,98222.72
2023-02-17T08:28:01.956Z,98221.31
2023-02-17T08:30:28.700Z,98215.31
2023-02-17T08:32:55.389Z,98217.25
2023-02-17T08:35:22.014Z,98214.66
2023-02-17T08:37:51.477Z,98225.41
2023-02-17T08:40:18.980Z,98222.97
2023-02-17T08:42:45.701Z,98227.31
2023-02-17T08:45:14.096Z,98226.59
2023-02-17T08:47:40.821Z,98225.53
2023-02-17T08:50:08.579Z,98216.47
2023-02-17T08:52:35.652Z,98224.06
2023-02-17T08:55:02.302Z,98226.78
2023-02-17T08:57:28.928Z,98239.09
2023-02-17T08:59:55.607Z,98241.84
2023-02-17T09:02:22.245Z,98248.31
2023-02-17T09:04:48.984Z,98242.00
2023-02-17T09:07:15.696Z,98253.59
2023-02-17T09:09:42.359Z,98247.84
2023-02-17T09:12:09.044Z,98255.06
2023-02-17T09:14:35.682Z,98244.84
2023-02-17T09:17:02.296Z,98249.00
2023-02-17T09:19:28.951Z,98255.88
2023-02-17T09:21:55.656Z,98258.25
2023-02-17T09:24:22.400Z,98253.13
2023-02-17T09:26:49.046Z,98255.34
2023-02-17T09:29:15.777Z,98259.25
2023-02-17T09:31:42.537Z,98264.44
2023-02-17T09:34:09.229Z,98268.50
2023-02-17T09:36:39.019Z,98266.13
2023-02-17T09:39:05.700Z,98272.53
2023-02-17T09:41:34.973Z,98280.34
2023-02-17T09:44:01.844Z,98281.56
2023-02-17T09:46:46.870Z,98278.53
2023-02-17T09:49:26.744Z,98278.84
2023-02-17T09:52:20.781Z,98272.31
2023-02-17T09:55:10.182Z,98283.59
2023-02-17T09:58:06.352Z,98275.03
2023-02-17T10:00:35.715Z,98269.31
2023-02-17T10:03:33.263Z,98268.63
2023-02-17T10:06:07.592Z,98265.63
2023-02-17T10:09:03.310Z,98268.19
2023-02-17T10:11:38.651Z,98278.38
2023-02-17T10:14:28.100Z,98275.84
2023-02-17T10:17:42.807Z,98274.38
2023-02-17T10:20:12.388Z,98280.19
2023-02-17T10:22:39.521Z,98277.28
2023-02-17T10:25:17.069Z,98275.53
2023-02-17T10:27:47.267Z,98268.13
2023-02-17T10:30:34.497Z,98277.91
2023-02-17T10:33:29.058Z,98281.00
2023-02-17T10:36:16.354Z,98274.94
2023-02-17T10:38:53.483Z,98272.66
2023-02-17T10:41:26.937Z,98261.41
2023-02-17T10:43:53.582Z,98279.19
2023-02-17T10:46:27.314Z,98269.91
2023-02-17T10:48:54.331Z,98271.16
2023-02-17T10:51:23.564Z,98263.22
2023-02-17T10:54:06.433Z,98264.22
2023-02-17T10:56:39.657Z,98261.31
2023-02-17T10:59:18.967Z,98253.06
2023-02-17T11:01:45.579Z,98261.66
2023-02-17T11:04:13.825Z,98252.34
2023-02-17T11:06:46.653Z,98251.09
2023-02-17T11:09:22.755Z,98256.44
2023-02-17T11:12:06.312Z,98248.06
2023-02-17T11:14:33.284Z,98245.94
2023-02-17T11:17:04.653Z,98246.13
2023-02-17T11:19:35.237Z,98228.16
2023-02-17T11:22:03.656Z,98228.03
2023-02-17T11:24:31.546Z,98224.94
2023-02-17T11:27:02.197Z,98223.72
2023-02-17T11:29:28.921Z,98226.25
2023-02-17T11:32:06.225Z,98208.81
2023-02-17T11:34:33.634Z,98202.78
2023-02-17T11:37:06.527Z,98198.00
2023-02-17T11:39:41.250Z,98190.72
2023-02-17T11:42:30.032Z,98190.31
2023-02-17T11:44:58.931Z,98182.81
2023-02-17T11:47:32.994Z,98178.50
2023-02-17T11:50:13.621Z,98168.09
2023-02-17T11:53:07.533Z,98170.16
2023-02-17T11:55:52.550Z,98169.75
2023-02-17T11:58:25.117Z,98165.59
2023-02-17T12:01:03.604Z,98171.81
2023-02-17T12:03:38.038Z,98168.91
2023-02-17T12:06:41.112Z,98154.97
2023-02-17T12:09:25.676Z,98149.81
2023-02-17T12:12:10.892Z,98146.47
2023-02-17T12:14:48.237Z,98144.31
2023-02-17T12:17:35.526Z,98146.00
2023-02-17T12:20:17.386Z,98149.72
2023-02-17T12:22:51.260Z,98144.09
2023-02-17T12:25:28.248Z,98137.66
2023-02-17T12:28:04.298Z,98137.03
2023-02-17T12:30:37.895Z,98127.75
2023-02-17T12:33:23.272Z,98134.59
2023-02-17T12:35:57.924Z,98131.03
2023-02-17T12:38:26.138Z,98128.94
2023-02-17T12:41:01.743Z,98115.00
2023-02-17T12:43:48.031Z,98127.41
2023-02-17T12:46:20.031Z,98128.25
2023-02-17T12:49:14.082Z,98125.16
2023-02-17T12:51:54.674Z,98125.56
2023-02-17T12:54:34.337Z,98125.53
2023-02-17T12:57:09.996Z,98126.53
2023-02-17T12:59:38.011Z,98122.13
2023-02-17T13:02:11.825Z,98123.16
2023-02-17T13:04:38.452Z,98118.94
2023-02-17T13:07:26.472Z,98119.59
2023-02-17T13:09:53.833Z,98123.91
2023-02-17T13:12:23.343Z,98117.09
2023-02-17T13:14:52.035Z,98115.00
2023-02-17T13:17:25.480Z,98121.28
2023-02-17T13:20:11.332Z,98109.66
2023-02-17T13:22:38.987Z,98122.56
2023-02-17T13:25:05.931Z,98121.66
2023-02-17T13:27:34.334Z,98114.78
2023-02-17T13:30:03.418Z,98109.69
2023-02-17T13:32:31.470Z,98109.84
2023-02-17T13:35:05.564Z,98112.72
2023-02-17T13:37:32.027Z,98111.66
2023-02-17T13:40:01.432Z,98102.63
2023-02-17T13:42:39.545Z,98100.03
2023-02-17T13:45:16.285Z,98089.28
2023-02-17T13:47:42.911Z,98098.69
2023-02-17T13:50:35.712Z,98097.69
2023-02-17T13:53:03.536Z,98091.00
2023-02-17T13:55:30.199Z,98098.69
2023-02-17T13:57:58.191Z,98115.09
2023-02-17T14:00:30.425Z,98103.31
2023-02-17T14:03:05.619Z,98099.66
2023-02-17T14:05:32.084Z,98107.59
2023-02-17T14:08:01.764Z,98104.31
2023-02-17T14:10:28.407Z,98097.81
2023-02-17T14:12:55.014Z,98105.94
2023-02-17T14:15:24.194Z,98100.53
2023-02-17T14:17:50.844Z,98094.06
2023-02-17T14:20:33.466Z,98100.59
2023-02-17T14:23:11.164Z,98099.56
2023-02-17T14:25:39.540Z,98094.81
2023-02-17T14:28:20.750Z,98095.22
2023-02-17T14:30:47.460Z,98087.13
2023-02-17T14:33:14.162Z,98087.75
2023-02-17T14:35:49.146Z,98088.22
2023-02-17T14:38:26.388Z,98088.56
2023-02-17T14:40:53.084Z,98090.41
2023-02-17T14:43:19.718Z,98084.56
2023-02-17T14:45:46.346Z,98084.72
2023-02-17T14:48:12.947Z,98078.22
2023-02-17T14:50:39.624Z,98072.69
2023-02-17T14:53:28.008Z,98076.66
2023-02-17T14:56:06.484Z,98064.56
2023-02-17T14:58:33.387Z,98067.47
2023-02-17T15:01:00.114Z,98068.31
2023-02-17T15:03:26.813Z,98064.63
2023-02-17T15:05:53.645Z,98074.47
2023-02-17T15:08:21.990Z,98072.69
2023-02-17T15:10:49.206Z,98076.81
2023-02-17T15:13:17.788Z,98079.44
2023-02-17T15:15:44.806Z,98077.66
2023-02-17T15:18:12.069Z,98080.78
2023-02-17T15:20:39.035Z,98079.97
2023-02-17T15:23:10.402Z,98082.31
2023-02-17T15:25:37.082Z,98083.69
2023-02-17T15:28:03.695Z,98081.81
2023-02-17T15:30:30.386Z,98084.97
2023-02-17T15:32:57.091Z,98088.47
2023-02-17T15:35:25.082Z,98088.44
2023-02-17T15:37:51.942Z,98085.94
2023-02-17T15:40:23.683Z,98096.47
2023-02-17T15:42:53.125Z,98088.75
2023-02-17T15:45:19.843Z,98083.94
2023-02-17T15:47:55.204Z,98093.06
2023-02-17T15:50:22.053Z,98084.56
2023-02-17T15:52:51.674Z,98090.19
2023-02-17T15:55:18.943Z,98090.59
2023-02-17T15:57:50.124Z,98092.50
2023-02-17T16:00:27.422Z,98092.97
2023-02-17T16:02:54.407Z,98092.97
2023-02-17T16:05:22.873Z,98102.34
2023-02-17T16:07:49.545Z,98098.63
2023-02-17T16:10:18.639Z,98107.00
2023-02-17T16:12:50.059Z,98101.38
2023-02-17T16:15:18.455Z,98102.00
2023-02-17T16:17:45.599Z,98105.72
2023-02-17T16:20:18.440Z,98106.78
2023-02-17T16:22:45.472Z,98100.75
2023-02-17T16:25:12.965Z,98104.53
2023-02-17T16:27:39.738Z,98103.91
2023-02-17T16:30:32.860Z,98112.22
2023-02-17T16:32:59.718Z,98111.59
2023-02-17T16:35:28.214Z,98112.06
2023-02-17T16:37:57.681Z,98115.38
2023-02-17T16:40:25.939Z,98115.75
2023-02-17T16:42:52.617Z,98111.19
2023-02-17T16:45:20.826Z,98112.84
2023-02-17T16:47:49.434Z,98116.59
2023-02-17T16:50:25.911Z,98112.03
2023-02-17T16:52:57.196Z,98116.84
2023-02-17T16:55:25.093Z,98114.53
2023-02-17T16:57:51.969Z,98115.78
2023-02-17T17:00:21.286Z,98120.34
2023-02-17T17:02:50.796Z,98124.50
2023-02-17T17:05:18.260Z,98129.50
2023-02-17T17:07:45.117Z,98134.47
2023-02-17T17:10:17.351Z,98130.75
2023-02-17T17:12:44.651Z,98127.22
2023-02-17T17:15:11.736Z,98122.84
2023-02-17T17:17:48.160Z,98128.22
2023-02-17T17:20:19.868Z,98125.53
2023-02-17T17:22:46.538Z,98127.63
2023-02-17T17:25:13.816Z,98125.53
2023-02-17T17:27:40.509Z,98128.22
2023-02-17T17:30:07.976Z,98125.94
2023-02-17T17:32:34.664Z,98121.78
2023-02-17T17:35:01.347Z,98124.88
2023-02-17T17:37:27.965Z,98128.38
2023-02-17T17:39:54.601Z,98138.13
2023-02-17T17:42:21.224Z,98133.56
2023-02-17T17:44:47.884Z,98138.56
2023-02-17T17:47:28.087Z,98133.34
2023-02-17T17:49:56.344Z,98138.31
2023-02-17T17:52:23.076Z,98147.88
2023-02-17T17:54:49.746Z,98142.88
2023-02-17T17:57:16.499Z,98144.34
2023-02-17T17:59:43.309Z,98146.13
2023-02-17T18:02:09.972Z,98142.66
2023-02-17T18:04:36.739Z,98143.94
2023-02-17T18:07:03.445Z,98148.09
2023-02-17T18:09:32.362Z,98152.22
2023-02-17T18:12:01.155Z,98152.84
2023-02-17T18:14:27.876Z,98155.75
2023-02-17T18:16:54.614Z,98152.19
2023-02-17T18:19:21.305Z,98160.44
2023-02-17T18:21:48.017Z,98152.97
2023-02-17T18:24:14.734Z,98154.44
2023-02-17T18:26:41.369Z,98154.75
2023-02-17T18:29:08.073Z,98155.97
2023-02-17T18:31:34.869Z,98159.13
2023-02-17T18:34:01.561Z,98171.97
2023-02-17T18:36:28.188Z,98161.81
2023-02-17T18:38:54.799Z,98169.69
2023-02-17T18:41:26.172Z,98161.81
2023-02-17T18:43:52.812Z,98170.50
2023-02-17T18:46:19.484Z,98163.81
2023-02-17T18:48:46.347Z,98159.41
2023-02-17T18:51:14.182Z,98164.38
2023-02-17T18:53:41.096Z,98160.97
2023-02-17T18:56:15.572Z,98172.63
2023-02-17T18:58:42.246Z,98171.81
2023-02-17T19:01:15.416Z,98176.09
2023-02-17T19:03:42.096Z,98176.19
2023-02-17T19:06:10.884Z,98176.19
2023-02-17T19:08:37.725Z,98170.59
2023-02-17T19:11:04.413Z,98172.09
2023-02-17T19:13:31.164Z,98174.78
2023-02-17T19:16:08.269Z,98183.50
2023-02-17T19:18:35.143Z,98186.59
2023-02-17T19:21:01.910Z,98183.25
2023-02-17T19:23:28.588Z,98175.16
2023-02-17T19:25:55.218Z,98173.72
2023-02-17T19:28:21.847Z,98182.06
2023-02-17T19:30:48.527Z,98177.72
2023-02-17T19:33:15.222Z,98177.88
2023-02-17T19:35:45.205Z,98176.19
2023-02-17T19:38:11.845Z,98171.50
2023-02-17T19:40:38.470Z,98170.66
2023-02-17T19:43:05.110Z,98170.28
2023-02-17T19:45:31.746Z,98173.38
2023-02-17T19:47:58.367Z,98173.19
2023-02-17T19:50:24.987Z,98179.19
2023-02-17T19:52:51.632Z,98174.81
2023-02-17T19:55:18.909Z,98185.97
2023-02-17T19:57:45.748Z,98188.06
2023-02-17T20:00:12.832Z,98183.16
2023-02-17T20:02:39.479Z,98182.75
2023-02-17T20:05:06.421Z,98186.69
2023-02-17T20:07:33.061Z,98184.41
2023-02-17T20:09:59.670Z,98183.75
2023-02-17T20:12:26.274Z,98182.72
2023-02-17T20:14:53.175Z,98192.28
2023-02-17T20:17:19.851Z,98181.91
2023-02-17T20:19:46.519Z,98191.63
2023-02-17T20:22:13.184Z,98191.63
2023-02-17T20:24:39.852Z,98192.88
2023-02-17T20:27:06.699Z,98193.69
2023-02-17T20:29:33.397Z,98188.06
2023-02-17T20:32:00.672Z,98179.97
2023-02-17T20:34:31.388Z,98184.97
2023-02-17T20:36:58.265Z,98181.16
2023-02-17T20:39:24.892Z,98184.97
2023-02-17T20:41:51.812Z,98186.03
2023-02-17T20:44:18.476Z,98190.16
2023-02-17T20:46:45.177Z,98185.53
2023-02-17T20:49:12.251Z,98183.78
2023-02-17T20:51:38.897Z,98181.84
2023-02-17T20:54:05.653Z,98188.25
2023-02-17T20:56:34.396Z,98189.19
2023-02-17T20:59:01.281Z,98186.50
2023-02-17T21:01:27.928Z,98192.00
2023-02-17T21:03:54.533Z,98185.56
2023-02-17T21:06:23.147Z,98185.88
2023-02-17T21:08:50.844Z,98194.50
2023-02-17T21:11:17.522Z,98181.19
2023-02-17T21:13:44.193Z,98188.56
2023-02-17T21:16:13.467Z,98193.13
2023-02-17T21:18:40.120Z,98192.84
2023-02-17T21:21:06.906Z,98186.13
2023-02-17T21:23:33.595Z,98180.41
2023-02-17T21:26:00.249Z,98190.22
2023-02-17T21:28:26.854Z,98196.81
2023-02-17T21:30:53.527Z,98188.34
2023-02-17T21:33:20.173Z,98192.13
2023-02-17T21:35:46.827Z,98199.09
2023-02-17T21:38:13.434Z,98198.81
2023-02-17T21:40:40.069Z,98199.81
2023-02-17T21:43:06.732Z,98188.72
2023-02-17T21:45:37.131Z,98197.13
2023-02-17T21:48:03.932Z,98188.91
2023-02-17T21:50:30.627Z,98194.16
2023-02-17T21:52:57.222Z,98190.75
2023-02-17T21:55:23.853Z,98190.50
2023-02-17T21:57:50.492Z,98189.50
2023-02-17T22:00:17.196Z,98187.09
2023-02-17T22:02:44.378Z,98188.44
2023-02-17T22:05:11.060Z,98182.16
2023-02-17T22:07:37.696Z,98186.69
2023-02-17T22:10:05.322Z,98177.34
2023-02-17T22:12:32.024Z,98178.19
2023-02-17T22:14:58.670Z,98187.25
2023-02-17T22:17:25.339Z,98184.94
2023-02-17T22:19:51.958Z,98189.28
2023-02-17T22:22:18.569Z,98194.19
2023-02-17T22:24:45.228Z,98196.94
2023-02-17T22:27:11.887Z,98185.50
2023-02-17T22:29:38.595Z,98202.50
2023-02-17T22:32:05.306Z,98203.34
2023-02-17T22:34:31.975Z,98199.91
2023-02-17T22:36:58.623Z,98207.78
2023-02-17T22:39:25.243Z,98198.38
2023-02-17T22:41:51.858Z,98200.22
2023-02-17T22:44:18.577Z,98197.03
2023-02-17T22:46:45.224Z,98200.56
2023-02-17T22:49:11.831Z,98197.78
2023-02-17T22:51:39.120Z,98203.63
2023-02-17T22:54:06.249Z,98208.69
2023-02-17T22:56:33.093Z,98207.28
2023-02-17T22:58:59.926Z,98205.16
2023-02-17T23:01:27.392Z,98198.06
2023-02-17T23:03:54.800Z,98194.38
2023-02-17T23:06:26.920Z,98205.91
2023-02-17T23:08:53.585Z,98199.16
2023-02-17T23:11:21.850Z,98201.00
2023-02-17T23:13:48.513Z,98190.03
2023-02-17T23:16:18.408Z,98194.13
2023-02-17T23:18:45.052Z,98194.34
2023-02-17T23:21:12.428Z,98192.84
2023-02-17T23:23:39.164Z,98195.53
2023-02-17T23:26:06.426Z,98200.69
2023-02-17T23:28:33.279Z,98187.53
2023-02-17T23:30:59.945Z,98192.06
2023-02-17T23:33:26.625Z,98191.63
2023-02-17T23:35:53.242Z,98189.09
2023-02-17T23:38:20.189Z,98188.94
2023-02-17T23:40:50.440Z,98185.13
2023-02-17T23:43:17.782Z,98178.06
2023-02-17T23:45:44.508Z,98186.31
2023-02-17T23:48:11.172Z,98184.72
2023-02-17T23:50:37.783Z,98177.84
2023-02-17T23:53:04.436Z,98192.78
2023-02-17T23:55:31.097Z,98189.88
2023-02-17T23:57:57.690Z,98191.06
